Time;durP1;ratioP1;P1;durP2;ratioP2;P2;SDS_P1;SDS_P2;PMS_P1;PMS_P2;Temp;Humidity;BMP_temperature;BMP_pressure;BME280_temperature;BME280_humidity;BME280_pressure;Samples;Min_cycle;Max_cycle;Signal;HPM_P1;HPM_P2
2023/07/09 00:00:28;;;;;;;10.88;7.40;;;;;;;;;;4988572;28;20047;-75
2023/07/09 00:02:54;;;;;;;11.15;7.00;;;;;;;;;;4990375;28;20046;-76
2023/07/09 00:05:20;;;;;;;9.57;6.97;;;;;;;;;;4988259;28;20051;-75
2023/07/09 00:07:46;;;;;;;10.68;7.00;;;;;;;;;;4988521;28;20080;-75
2023/07/09 00:10:17;;;;;;;11.40;7.13;;;;;;;;;;4992239;28;20064;-76
2023/07/09 00:12:43;;;;;;;11.60;7.32;;;;;;;;;;4987860;28;20122;-75
2023/07/09 00:15:11;;;;;;;11.70;7.60;;;;;;;;;;4988133;28;20043;-75
2023/07/09 00:17:39;;;;;;;10.45;7.30;;;;;;;;;;4975467;28;20169;-76
2023/07/09 00:20:12;;;;;;;9.38;6.38;;;;;;;;;;4995899;28;20106;-77
2023/07/09 00:22:39;;;;;;;12.25;7.80;;;;;;;;;;4985578;28;20039;-75
2023/07/09 00:25:05;;;;;;;9.23;7.00;;;;;;;;;;4986373;28;20050;-76
2023/07/09 00:27:31;;;;;;;11.48;7.00;;;;;;;;;;4985997;28;20050;-75
2023/07/09 00:29:57;;;;;;;12.65;7.45;;;;;;;;;;4986347;28;20073;-77
2023/07/09 00:32:24;;;;;;;8.63;6.80;;;;;;;;;;4985834;28;20092;-76
2023/07/09 00:34:53;;;;;;;9.82;7.10;;;;;;;;;;4985206;28;20070;-75
2023/07/09 00:37:22;;;;;;;9.65;6.80;;;;;;;;;;4985975;28;20051;-75
2023/07/09 00:39:48;;;;;;;10.75;6.93;;;;;;;;;;4987744;28;20073;-76
2023/07/09 00:42:17;;;;;;;10.35;7.35;;;;;;;;;;4988945;28;20054;-76
2023/07/09 00:44:44;;;;;;;11.73;7.15;;;;;;;;;;4983165;28;20073;-75
2023/07/09 00:47:19;;;;;;;11.73;7.35;;;;;;;;;;4985619;28;20051;-75
2023/07/09 00:49:47;;;;;;;9.82;7.10;;;;;;;;;;4985750;28;20046;-76
2023/07/09 00:52:53;;;;;;;11.40;7.70;;;;;;;;;;4983279;28;20053;-76
2023/07/09 00:55:21;;;;;;;11.63;7.47;;;;;;;;;;5027406;28;20045;-76
2023/07/09 00:57:55;;;;;;;11.75;7.30;;;;;;;;;;5043435;28;20050;-75
2023/07/09 01:00:22;;;;;;;11.85;7.25;;;;;;;;;;5041196;28;20062;-76
2023/07/09 01:02:48;;;;;;;10.45;7.03;;;;;;;;;;5042062;28;20052;-76
2023/07/09 01:05:17;;;;;;;9.38;7.28;;;;;;;;;;5042190;28;20041;-76
2023/07/09 01:07:45;;;;;;;11.50;7.25;;;;;;;;;;5042516;28;20057;-76
2023/07/09 01:10:14;;;;;;;13.68;7.32;;;;;;;;;;5042690;28;20053;-76
2023/07/09 01:12:40;;;;;;;11.73;7.22;;;;;;;;;;5041422;28;20054;-76
2023/07/09 01:15:07;;;;;;;11.30;6.90;;;;;;;;;;5041281;28;20108;-75
2023/07/09 01:17:33;;;;;;;11.30;6.75;;;;;;;;;;5039500;28;20119;-76
2023/07/09 01:20:00;;;;;;;11.00;7.22;;;;;;;;;;5044354;28;20045;-75
2023/07/09 01:22:27;;;;;;;11.13;6.63;;;;;;;;;;5042921;28;20127;-76
2023/07/09 01:25:01;;;;;;;8.88;6.78;;;;;;;;;;5033349;28;20180;-76
2023/07/09 01:27:29;;;;;;;11.90;7.10;;;;;;;;;;4981056;28;20043;-75
2023/07/09 01:29:57;;;;;;;10.70;7.05;;;;;;;;;;4982508;28;20074;-76
2023/07/09 01:32:24;;;;;;;11.60;7.18;;;;;;;;;;4982002;28;20051;-76
2023/07/09 01:34:53;;;;;;;8.55;6.45;;;;;;;;;;4986624;28;20043;-76
2023/07/09 01:37:21;;;;;;;10.05;6.90;;;;;;;;;;4982597;28;20038;-76
2023/07/09 01:39:49;;;;;;;10.30;6.65;;;;;;;;;;4985510;28;20046;-75
2023/07/09 01:42:15;;;;;;;10.50;7.40;;;;;;;;;;4982700;28;20108;-75
2023/07/09 01:44:41;;;;;;;9.70;6.95;;;;;;;;;;4991215;28;20059;-76
2023/07/09 01:47:07;;;;;;;10.77;7.20;;;;;;;;;;5017920;28;20518;-76
2023/07/09 01:49:34;;;;;;;12.07;7.55;;;;;;;;;;4985271;28;20564;-75
2023/07/09 01:52:04;;;;;;;9.52;7.07;;;;;;;;;;4985561;28;20378;-76
2023/07/09 01:54:31;;;;;;;10.13;7.05;;;;;;;;;;4981579;28;20500;-75
2023/07/09 01:57:13;;;;;;;16.92;7.63;;;;;;;;;;4980970;28;20496;-77
2023/07/09 01:59:41;;;;;;;12.85;7.38;;;;;;;;;;4993913;28;20050;-75
2023/07/09 02:02:07;;;;;;;11.57;7.55;;;;;;;;;;5005075;28;20058;-75
2023/07/09 02:04:33;;;;;;;10.38;7.13;;;;;;;;;;4988327;28;20054;-75
2023/07/09 02:06:59;;;;;;;10.00;7.50;;;;;;;;;;4988001;28;20057;-76
2023/07/09 02:09:25;;;;;;;9.45;7.00;;;;;;;;;;4982685;28;20049;-76
2023/07/09 02:11:51;;;;;;;11.80;7.40;;;;;;;;;;4981550;28;20130;-77
2023/07/09 02:14:19;;;;;;;10.32;8.00;;;;;;;;;;4984056;28;20054;-76
2023/07/09 02:16:45;;;;;;;11.50;7.43;;;;;;;;;;5005668;28;20050;-76
2023/07/09 02:19:11;;;;;;;11.93;7.60;;;;;;;;;;4981631;28;20046;-75
2023/07/09 02:21:37;;;;;;;13.73;7.80;;;;;;;;;;4993937;28;20092;-75
2023/07/09 02:24:03;;;;;;;11.23;7.40;;;;;;;;;;4982216;28;20045;-75
2023/07/09 02:26:29;;;;;;;11.70;7.55;;;;;;;;;;4979723;28;20050;-76
2023/07/09 02:28:58;;;;;;;13.65;7.47;;;;;;;;;;5029493;28;20039;-76
2023/07/09 02:31:24;;;;;;;11.15;7.82;;;;;;;;;;5043064;28;20097;-76
2023/07/09 02:33:51;;;;;;;10.98;7.28;;;;;;;;;;4982435;28;20061;-76
2023/07/09 02:36:17;;;;;;;13.77;7.93;;;;;;;;;;4981581;28;20053;-76
2023/07/09 02:38:43;;;;;;;11.45;7.60;;;;;;;;;;4981468;28;20039;-76
2023/07/09 02:41:09;;;;;;;11.02;7.85;;;;;;;;;;4991456;28;20057;-76
2023/07/09 02:43:35;;;;;;;10.77;7.60;;;;;;;;;;4982927;28;20043;-75
2023/07/09 02:46:01;;;;;;;11.13;7.32;;;;;;;;;;5008749;28;20462;-76
2023/07/09 02:48:27;;;;;;;12.57;7.20;;;;;;;;;;4984652;28;20047;-74
2023/07/09 02:50:53;;;;;;;11.05;7.72;;;;;;;;;;4999663;28;20469;-76
2023/07/09 02:53:19;;;;;;;13.55;8.73;;;;;;;;;;4978466;28;20088;-75
2023/07/09 02:55:45;;;;;;;11.98;7.82;;;;;;;;;;4995902;28;20047;-76
2023/07/09 02:58:11;;;;;;;10.15;7.47;;;;;;;;;;4988507;28;20130;-76
2023/07/09 03:00:37;;;;;;;10.32;7.82;;;;;;;;;;4988608;28;20091;-76
2023/07/09 03:03:03;;;;;;;11.65;7.75;;;;;;;;;;4986374;28;20035;-75
2023/07/09 03:05:29;;;;;;;12.80;8.10;;;;;;;;;;4985522;28;20054;-75
2023/07/09 03:07:55;;;;;;;12.38;8.45;;;;;;;;;;4987677;28;20047;-75
2023/07/09 03:10:21;;;;;;;14.20;8.77;;;;;;;;;;4998925;28;20173;-76
2023/07/09 03:12:47;;;;;;;11.18;8.50;;;;;;;;;;4983241;28;20043;-75
2023/07/09 03:15:14;;;;;;;10.48;8.18;;;;;;;;;;4988460;28;20043;-76
2023/07/09 03:17:40;;;;;;;12.63;8.48;;;;;;;;;;4982007;28;20053;-76
2023/07/09 03:20:07;;;;;;;11.68;8.55;;;;;;;;;;4987219;28;20047;-76
2023/07/09 03:22:33;;;;;;;11.95;8.23;;;;;;;;;;4987382;28;20046;-76
2023/07/09 03:24:59;;;;;;;10.18;7.90;;;;;;;;;;4983256;28;20043;-75
2023/07/09 03:27:27;;;;;;;12.80;8.65;;;;;;;;;;4983831;28;20148;-76
2023/07/09 03:29:53;;;;;;;11.10;8.38;;;;;;;;;;5002282;28;20043;-77
2023/07/09 03:32:19;;;;;;;15.10;8.77;;;;;;;;;;4986045;28;20043;-75
2023/07/09 03:34:45;;;;;;;11.82;8.73;;;;;;;;;;4986486;28;20054;-76
2023/07/09 03:37:11;;;;;;;12.15;8.43;;;;;;;;;;4985880;28;20055;-76
2023/07/09 03:39:37;;;;;;;12.18;9.07;;;;;;;;;;4986512;28;20050;-76
2023/07/09 03:42:03;;;;;;;12.38;8.63;;;;;;;;;;4988480;28;20042;-75
2023/07/09 03:44:29;;;;;;;15.18;9.30;;;;;;;;;;4993782;28;20132;-76
2023/07/09 03:46:55;;;;;;;10.95;8.18;;;;;;;;;;5083673;28;20147;-76
2023/07/09 03:49:21;;;;;;;15.45;8.90;;;;;;;;;;5086124;28;20144;-75
2023/07/09 03:51:47;;;;;;;17.65;8.85;;;;;;;;;;4987578;28;20042;-76
2023/07/09 03:54:13;;;;;;;12.00;8.52;;;;;;;;;;4985384;28;20069;-76
2023/07/09 03:56:39;;;;;;;10.93;9.05;;;;;;;;;;5004372;28;20046;-76
2023/07/09 03:59:05;;;;;;;12.45;8.98;;;;;;;;;;5003497;28;20107;-76
2023/07/09 04:01:31;;;;;;;13.98;9.75;;;;;;;;;;5003885;28;20043;-76
2023/07/09 04:03:57;;;;;;;14.23;9.63;;;;;;;;;;4997278;28;20034;-75
2023/07/09 04:06:24;;;;;;;10.45;8.57;;;;;;;;;;5015813;28;20143;-76
2023/07/09 04:08:50;;;;;;;14.38;8.52;;;;;;;;;;5006119;28;20126;-75
2023/07/09 04:11:16;;;;;;;14.65;8.60;;;;;;;;;;4983245;28;20050;-76
2023/07/09 04:13:42;;;;;;;10.63;8.35;;;;;;;;;;4984051;28;20043;-77
2023/07/09 04:16:08;;;;;;;11.82;8.40;;;;;;;;;;4984937;28;20050;-76
2023/07/09 04:18:35;;;;;;;13.52;8.73;;;;;;;;;;4991324;28;20054;-76
2023/07/09 04:21:02;;;;;;;12.38;8.48;;;;;;;;;;4990327;28;20062;-75
2023/07/09 04:23:28;;;;;;;11.50;8.50;;;;;;;;;;4988314;28;20038;-76
2023/07/09 04:25:54;;;;;;;14.13;8.32;;;;;;;;;;4982966;28;20046;-76
2023/07/09 04:28:20;;;;;;;11.90;8.93;;;;;;;;;;4979543;28;20046;-74
2023/07/09 04:30:50;;;;;;;13.02;8.30;;;;;;;;;;4983662;28;20055;-76
2023/07/09 04:33:19;;;;;;;10.55;7.88;;;;;;;;;;4983012;28;20047;-76
2023/07/09 04:35:47;;;;;;;12.25;8.57;;;;;;;;;;4977837;28;20058;-76
2023/07/09 04:38:13;;;;;;;12.52;8.02;;;;;;;;;;4989105;28;20051;-76
2023/07/09 04:40:39;;;;;;;11.57;8.15;;;;;;;;;;4971966;28;20047;-75
2023/07/09 04:43:05;;;;;;;11.82;8.02;;;;;;;;;;4983485;28;20137;-76
2023/07/09 04:45:32;;;;;;;12.60;8.48;;;;;;;;;;4984231;28;20062;-76
2023/07/09 04:47:58;;;;;;;12.18;8.73;;;;;;;;;;4993982;28;20482;-75
2023/07/09 04:50:24;;;;;;;11.93;8.18;;;;;;;;;;4983564;28;20061;-76
2023/07/09 04:52:52;;;;;;;11.23;8.30;;;;;;;;;;4983524;28;20039;-76
2023/07/09 04:55:18;;;;;;;11.32;8.50;;;;;;;;;;4982765;28;20446;-76
2023/07/09 04:57:45;;;;;;;11.27;8.70;;;;;;;;;;5021515;28;20144;-76
2023/07/09 05:00:12;;;;;;;12.05;8.50;;;;;;;;;;4980374;28;20362;-76
2023/07/09 05:02:38;;;;;;;10.98;8.32;;;;;;;;;;4981970;28;20467;-75
2023/07/09 05:05:05;;;;;;;9.88;8.10;;;;;;;;;;4982868;28;20065;-76
2023/07/09 05:07:33;;;;;;;11.57;8.63;;;;;;;;;;4991755;28;20052;-75
2023/07/09 05:09:59;;;;;;;14.15;8.60;;;;;;;;;;4989477;28;20039;-76
2023/07/09 05:12:27;;;;;;;11.98;8.80;;;;;;;;;;4982990;28;20122;-76
2023/07/09 05:14:54;;;;;;;9.82;8.02;;;;;;;;;;5025418;28;20036;-75
2023/07/09 05:17:21;;;;;;;11.93;8.10;;;;;;;;;;4985905;28;20133;-76
2023/07/09 05:19:48;;;;;;;11.55;8.50;;;;;;;;;;4980703;28;20050;-76
2023/07/09 05:22:14;;;;;;;11.32;8.57;;;;;;;;;;4977359;28;20126;-75
2023/07/09 05:24:41;;;;;;;9.85;8.18;;;;;;;;;;4984759;28;20041;-74
2023/07/09 05:27:07;;;;;;;13.48;8.15;;;;;;;;;;4985806;28;20055;-76
2023/07/09 05:29:33;;;;;;;12.10;8.50;;;;;;;;;;5040260;28;20046;-76
2023/07/09 05:31:59;;;;;;;12.70;8.75;;;;;;;;;;4983175;28;20055;-76
2023/07/09 05:34:25;;;;;;;13.90;8.88;;;;;;;;;;4997305;28;20043;-75
2023/07/09 05:36:51;;;;;;;13.48;9.40;;;;;;;;;;4989846;28;20051;-76
2023/07/09 05:39:17;;;;;;;11.50;9.77;;;;;;;;;;4984610;28;20552;-76
2023/07/09 05:41:44;;;;;;;14.60;8.90;;;;;;;;;;4972154;28;20071;-76
2023/07/09 05:44:10;;;;;;;10.32;9.13;;;;;;;;;;5015895;28;20504;-76
2023/07/09 05:46:37;;;;;;;12.48;9.20;;;;;;;;;;4978578;28;20406;-76
2023/07/09 05:49:04;;;;;;;11.02;8.82;;;;;;;;;;4978065;28;20048;-75
2023/07/09 05:51:30;;;;;;;12.18;9.10;;;;;;;;;;4981361;28;20481;-76
2023/07/09 05:53:56;;;;;;;12.38;8.95;;;;;;;;;;4975353;28;20066;-76
2023/07/09 05:56:22;;;;;;;12.43;9.02;;;;;;;;;;4972755;28;20051;-75
2023/07/09 05:58:48;;;;;;;12.88;8.85;;;;;;;;;;4992350;28;20050;-74
2023/07/09 06:01:14;;;;;;;12.05;8.65;;;;;;;;;;4978430;28;20053;-76
2023/07/09 06:03:40;;;;;;;13.60;9.02;;;;;;;;;;4977641;28;20072;-75
2023/07/09 06:06:06;;;;;;;14.63;9.48;;;;;;;;;;4981945;28;20508;-75
2023/07/09 06:08:33;;;;;;;13.75;9.32;;;;;;;;;;4973199;28;20039;-75
2023/07/09 06:11:00;;;;;;;11.57;8.88;;;;;;;;;;4978503;28;20047;-75
2023/07/09 06:13:26;;;;;;;12.32;8.55;;;;;;;;;;4972858;28;20050;-75
2023/07/09 06:15:53;;;;;;;13.15;8.80;;;;;;;;;;4984097;28;20046;-75
2023/07/09 06:18:20;;;;;;;12.43;8.80;;;;;;;;;;4977641;28;20528;-74
2023/07/09 06:20:47;;;;;;;13.18;8.90;;;;;;;;;;4989919;28;20043;-75
2023/07/09 06:23:13;;;;;;;11.75;8.02;;;;;;;;;;4985150;28;20053;-76
2023/07/09 06:25:39;;;;;;;12.63;8.15;;;;;;;;;;4979024;28;20051;-75
2023/07/09 06:28:05;;;;;;;11.98;8.82;;;;;;;;;;4976896;28;20043;-75
2023/07/09 06:30:31;;;;;;;13.82;8.45;;;;;;;;;;5009506;28;20045;-75
2023/07/09 06:32:57;;;;;;;14.35;8.85;;;;;;;;;;5015725;28;20041;-76
2023/07/09 06:35:23;;;;;;;10.57;8.73;;;;;;;;;;4976715;28;20039;-75
2023/07/09 06:37:49;;;;;;;12.20;7.95;;;;;;;;;;4980385;28;20055;-76
2023/07/09 06:40:15;;;;;;;10.52;8.05;;;;;;;;;;4979196;28;20489;-75
2023/07/09 06:42:41;;;;;;;11.40;8.02;;;;;;;;;;4978202;28;20115;-76
2023/07/09 06:45:08;;;;;;;11.82;8.02;;;;;;;;;;4999531;28;20416;-74
2023/07/09 06:47:34;;;;;;;13.07;8.20;;;;;;;;;;4999293;28;20507;-74
2023/07/09 06:50:00;;;;;;;11.63;8.27;;;;;;;;;;4984978;28;20386;-75
2023/07/09 06:52:26;;;;;;;8.98;7.22;;;;;;;;;;5046188;28;20049;-75
2023/07/09 06:54:52;;;;;;;11.07;8.20;;;;;;;;;;4999309;28;20054;-74
2023/07/09 06:57:18;;;;;;;9.80;7.88;;;;;;;;;;4992399;28;20051;-75
2023/07/09 06:59:44;;;;;;;11.90;8.00;;;;;;;;;;4971076;28;20039;-74
2023/07/09 07:02:10;;;;;;;11.55;7.47;;;;;;;;;;5055176;28;20508;-75
2023/07/09 07:04:37;;;;;;;12.68;7.93;;;;;;;;;;4977983;28;20104;-74
2023/07/09 07:07:03;;;;;;;9.35;7.60;;;;;;;;;;4985411;28;20043;-75
2023/07/09 07:09:29;;;;;;;12.75;7.20;;;;;;;;;;4999127;28;20038;-74
2023/07/09 07:11:55;;;;;;;12.43;7.95;;;;;;;;;;4987801;28;20047;-74
2023/07/09 07:14:21;;;;;;;11.57;8.02;;;;;;;;;;4984776;28;20091;-74
2023/07/09 07:16:48;;;;;;;12.40;8.13;;;;;;;;;;4978385;28;20172;-75
2023/07/09 07:19:14;;;;;;;10.38;7.90;;;;;;;;;;4986090;28;20047;-74
2023/07/09 07:21:40;;;;;;;9.27;6.97;;;;;;;;;;4979904;28;20051;-74
2023/07/09 07:24:06;;;;;;;11.05;7.43;;;;;;;;;;4978316;28;20061;-74
2023/07/09 07:26:32;;;;;;;10.40;7.68;;;;;;;;;;4980488;28;20104;-74
2023/07/09 07:28:58;;;;;;;10.57;7.90;;;;;;;;;;4976510;28;20031;-74
2023/07/09 07:31:25;;;;;;;11.85;7.88;;;;;;;;;;5014724;28;20050;-74
2023/07/09 07:33:52;;;;;;;11.73;7.80;;;;;;;;;;4978914;28;20077;-75
2023/07/09 07:36:18;;;;;;;11.35;7.53;;;;;;;;;;4978431;28;20116;-74
2023/07/09 07:38:44;;;;;;;9.82;7.28;;;;;;;;;;4978011;28;20051;-75
2023/07/09 07:41:10;;;;;;;12.35;8.10;;;;;;;;;;4971749;28;20066;-74
2023/07/09 07:43:36;;;;;;;10.55;7.80;;;;;;;;;;4978315;28;20050;-74
2023/07/09 07:46:03;;;;;;;12.57;7.32;;;;;;;;;;4984894;28;20054;-74
2023/07/09 07:48:29;;;;;;;10.35;7.60;;;;;;;;;;5033100;28;20046;-74
2023/07/09 07:51:02;;;;;;;11.95;7.70;;;;;;;;;;4991971;28;20047;-75
2023/07/09 07:53:30;;;;;;;9.75;7.20;;;;;;;;;;4994147;28;20075;-75
2023/07/09 07:55:57;;;;;;;10.77;7.45;;;;;;;;;;4981772;28;20058;-75
2023/07/09 07:58:23;;;;;;;11.13;7.30;;;;;;;;;;4979981;28;20062;-75
2023/07/09 08:00:49;;;;;;;11.35;7.40;;;;;;;;;;4995339;28;20042;-75
2023/07/09 08:03:16;;;;;;;12.45;7.78;;;;;;;;;;5002589;28;20053;-75
2023/07/09 08:05:42;;;;;;;11.02;7.50;;;;;;;;;;4982839;28;20043;-75
2023/07/09 08:08:09;;;;;;;11.65;7.10;;;;;;;;;;4982658;28;20051;-74
2023/07/09 08:10:35;;;;;;;11.35;7.35;;;;;;;;;;4983783;28;20054;-75
2023/07/09 08:13:01;;;;;;;13.25;7.28;;;;;;;;;;4995103;28;20047;-75
2023/07/09 08:15:28;;;;;;;10.93;7.43;;;;;;;;;;4984325;28;20047;-75
2023/07/09 08:17:54;;;;;;;10.95;7.00;;;;;;;;;;4986054;28;20073;-74
2023/07/09 08:20:20;;;;;;;13.15;7.40;;;;;;;;;;4980545;28;20081;-73
2023/07/09 08:22:46;;;;;;;10.40;7.05;;;;;;;;;;4997534;28;20108;-74
2023/07/09 08:25:13;;;;;;;20.10;8.40;;;;;;;;;;4975560;28;20070;-74
2023/07/09 08:27:39;;;;;;;12.43;7.75;;;;;;;;;;4977428;28;20093;-75
2023/07/09 08:30:05;;;;;;;11.60;7.65;;;;;;;;;;4978680;28;20061;-74
2023/07/09 08:32:31;;;;;;;10.40;7.15;;;;;;;;;;4971512;28;20047;-73
2023/07/09 08:34:57;;;;;;;11.88;7.78;;;;;;;;;;5014303;28;20072;-74
2023/07/09 08:37:24;;;;;;;11.80;7.68;;;;;;;;;;4976802;28;20556;-75
2023/07/09 08:39:50;;;;;;;9.55;7.45;;;;;;;;;;4977130;28;20050;-76
2023/07/09 08:42:21;;;;;;;11.20;7.35;;;;;;;;;;4985548;28;20411;-74
2023/07/09 08:44:47;;;;;;;11.15;7.53;;;;;;;;;;5035865;28;20044;-76
2023/07/09 08:47:19;;;;;;;13.40;7.28;;;;;;;;;;5023944;28;20098;-75
2023/07/09 08:50:18;;;;;;;14.18;7.80;;;;;;;;;;4974713;28;20053;-75
2023/07/09 08:52:45;;;;;;;9.60;7.00;;;;;;;;;;5004164;28;20069;-75
2023/07/09 08:55:11;;;;;;;12.05;6.93;;;;;;;;;;4981453;28;20106;-75
2023/07/09 08:57:40;;;;;;;12.48;8.63;;;;;;;;;;4990423;28;20050;-74
2023/07/09 09:00:19;;;;;;;13.90;7.80;;;;;;;;;;4976401;28;20058;-73
2023/07/09 09:03:04;;;;;;;14.43;7.97;;;;;;;;;;4976087;28;20058;-73
2023/07/09 09:05:33;;;;;;;11.77;7.20;;;;;;;;;;4965683;28;20053;-75
2023/07/09 09:08:20;;;;;;;12.27;7.60;;;;;;;;;;4959839;28;20047;-75
2023/07/09 09:10:52;;;;;;;11.27;7.05;;;;;;;;;;4993141;28;20085;-74
2023/07/09 09:13:20;;;;;;;13.00;7.65;;;;;;;;;;4989733;28;20055;-73
2023/07/09 09:15:47;;;;;;;10.55;7.13;;;;;;;;;;5082564;28;20044;-75
2023/07/09 09:18:19;;;;;;;11.30;7.10;;;;;;;;;;4958008;28;20066;-74
2023/07/09 09:20:48;;;;;;;11.13;6.45;;;;;;;;;;4991784;28;20397;-75
2023/07/09 09:23:15;;;;;;;13.18;7.00;;;;;;;;;;4976397;28;20123;-75
2023/07/09 09:25:43;;;;;;;10.95;6.93;;;;;;;;;;4977980;28;20412;-74
2023/07/09 09:28:09;;;;;;;11.85;7.30;;;;;;;;;;4974391;28;20095;-74
2023/07/09 09:30:35;;;;;;;10.00;6.70;;;;;;;;;;5045327;28;20130;-75
2023/07/09 09:33:07;;;;;;;11.60;6.80;;;;;;;;;;4979987;28;20100;-74
2023/07/09 09:35:35;;;;;;;12.57;6.78;;;;;;;;;;4964819;28;20478;-75
2023/07/09 09:38:02;;;;;;;11.40;6.95;;;;;;;;;;4996385;28;20035;-74
2023/07/09 09:40:29;;;;;;;14.23;7.47;;;;;;;;;;4986402;28;20038;-74
2023/07/09 09:43:00;;;;;;;10.65;7.18;;;;;;;;;;4975206;28;20053;-74
2023/07/09 09:45:36;;;;;;;11.68;6.53;;;;;;;;;;4975499;28;20047;-75
2023/07/09 09:48:10;;;;;;;12.15;6.85;;;;;;;;;;4978382;28;20085;-74
2023/07/09 09:50:37;;;;;;;8.77;6.47;;;;;;;;;;4973914;28;20229;-74
2023/07/09 09:53:03;;;;;;;12.68;7.05;;;;;;;;;;4975268;28;20437;-74
2023/07/09 09:55:32;;;;;;;12.82;6.88;;;;;;;;;;4972707;28;20050;-73
2023/07/09 09:57:58;;;;;;;9.02;6.50;;;;;;;;;;4976771;28;20127;-73
2023/07/09 10:00:26;;;;;;;12.10;6.18;;;;;;;;;;4981752;28;20049;-74
2023/07/09 10:02:57;;;;;;;12.32;6.10;;;;;;;;;;4976885;28;20043;-74
2023/07/09 10:05:30;;;;;;;12.50;6.45;;;;;;;;;;4966552;28;20409;-73
2023/07/09 10:08:01;;;;;;;9.82;5.95;;;;;;;;;;4969210;28;20058;-74
2023/07/09 10:10:28;;;;;;;12.23;5.68;;;;;;;;;;4990037;28;20055;-73
2023/07/09 10:13:24;;;;;;;10.80;5.90;;;;;;;;;;4990329;28;20053;-73
2023/07/09 10:16:07;;;;;;;9.57;5.65;;;;;;;;;;4956709;28;20055;-73
2023/07/09 10:18:46;;;;;;;13.45;5.50;;;;;;;;;;5012783;28;20052;-74
2023/07/09 10:21:16;;;;;;;10.20;5.45;;;;;;;;;;4985964;28;20121;-73
2023/07/09 10:23:50;;;;;;;9.32;5.55;;;;;;;;;;4972647;28;20055;-74
2023/07/09 10:26:21;;;;;;;12.30;5.63;;;;;;;;;;4974747;28;20050;-74
2023/07/09 10:28:54;;;;;;;7.47;4.60;;;;;;;;;;5002854;28;20044;-73
2023/07/09 10:31:40;;;;;;;8.20;4.78;;;;;;;;;;4969619;28;20047;-74
2023/07/09 10:34:19;;;;;;;8.15;4.60;;;;;;;;;;4958199;28;20070;-73
2023/07/09 10:36:48;;;;;;;8.80;4.47;;;;;;;;;;4974056;28;20409;-74
2023/07/09 10:39:20;;;;;;;10.77;4.90;;;;;;;;;;4976708;28;20047;-73
2023/07/09 10:41:49;;;;;;;10.70;4.60;;;;;;;;;;4974642;28;20046;-74
2023/07/09 10:44:18;;;;;;;9.18;4.93;;;;;;;;;;4980419;28;20049;-74
2023/07/09 10:46:47;;;;;;;9.93;5.10;;;;;;;;;;4973179;28;20058;-74
2023/07/09 10:49:16;;;;;;;10.45;4.65;;;;;;;;;;4970253;28;20054;-72
2023/07/09 10:51:45;;;;;;;10.43;5.28;;;;;;;;;;4963254;28;20046;-74
2023/07/09 10:54:34;;;;;;;11.68;5.38;;;;;;;;;;4961715;28;20051;-73
2023/07/09 10:57:16;;;;;;;9.23;5.22;;;;;;;;;;4976431;28;20097;-73
2023/07/09 10:59:42;;;;;;;13.90;5.55;;;;;;;;;;4962057;28;20039;-73
2023/07/09 11:02:11;;;;;;;10.05;5.50;;;;;;;;;;4979647;28;20056;-74
2023/07/09 11:04:40;;;;;;;8.98;5.30;;;;;;;;;;4971070;28;20050;-74
2023/07/09 11:07:08;;;;;;;9.65;4.78;;;;;;;;;;4974622;28;20050;-73
2023/07/09 11:09:36;;;;;;;10.45;5.63;;;;;;;;;;4961666;28;20393;-74
2023/07/09 11:12:05;;;;;;;10.82;6.05;;;;;;;;;;4979986;28;20084;-74
2023/07/09 11:14:40;;;;;;;10.13;5.82;;;;;;;;;;4976020;28;20134;-74
2023/07/09 11:17:12;;;;;;;11.55;5.63;;;;;;;;;;5019224;28;20525;-74
2023/07/09 11:19:46;;;;;;;10.70;5.35;;;;;;;;;;4983501;28;20104;-74
2023/07/09 11:22:17;;;;;;;10.18;5.70;;;;;;;;;;4977914;28;20082;-72
2023/07/09 11:24:43;;;;;;;;;;;;;;;;;;5083788;22;20053;-74
2023/07/09 11:27:17;;;;;;;8.13;5.40;;;;;;;;;;5074546;28;20444;-73
2023/07/09 11:29:47;;;;;;;10.50;5.30;;;;;;;;;;5074774;28;20190;-73
2023/07/09 11:32:13;;;;;;;;;;;;;;;;;;5077161;28;20529;-74
2023/07/09 11:34:46;;;;;;;10.25;5.22;;;;;;;;;;5064988;28;20019;-74
2023/07/09 11:37:13;;;;;;;11.00;5.70;;;;;;;;;;5077857;28;20071;-74
2023/07/09 11:39:42;;;;;;;8.30;5.22;;;;;;;;;;5055807;28;20491;-75
2023/07/09 11:42:27;;;;;;;10.32;5.55;;;;;;;;;;5056671;28;20070;-74
2023/07/09 11:45:08;;;;;;;7.53;5.43;;;;;;;;;;5062260;28;20554;-74
2023/07/09 11:47:40;;;;;;;8.93;5.35;;;;;;;;;;5057577;28;20041;-74
2023/07/09 11:50:16;;;;;;;10.10;5.70;;;;;;;;;;5071859;28;20044;-74
2023/07/09 11:52:53;;;;;;;9.35;5.63;;;;;;;;;;5070051;28;20089;-74
2023/07/09 11:55:29;;;;;;;9.10;5.30;;;;;;;;;;5076160;28;20061;-73
2023/07/09 11:58:00;;;;;;;10.25;5.40;;;;;;;;;;5070761;28;20121;-73
2023/07/09 12:00:28;;;;;;;8.73;4.80;;;;;;;;;;5075819;28;20106;-73
2023/07/09 12:02:55;;;;;;;10.18;4.97;;;;;;;;;;5077428;28;20072;-75
2023/07/09 12:05:28;;;;;;;10.40;4.90;;;;;;;;;;5078422;28;20045;-74
2023/07/09 12:07:56;;;;;;;8.90;4.55;;;;;;;;;;5077893;28;20056;-73
2023/07/09 12:10:23;;;;;;;8.63;4.18;;;;;;;;;;5076815;28;20044;-73
2023/07/09 12:12:54;;;;;;;9.40;4.57;;;;;;;;;;5060313;28;20497;-74
2023/07/09 12:15:22;;;;;;;10.25;4.88;;;;;;;;;;5072076;28;20400;-75
2023/07/09 12:17:56;;;;;;;9.95;4.85;;;;;;;;;;5057851;28;20051;-74
2023/07/09 12:20:22;;;;;;;9.23;4.35;;;;;;;;;;5075713;28;20068;-74
2023/07/09 12:22:49;;;;;;;6.95;4.45;;;;;;;;;;5067977;28;20049;-74
2023/07/09 12:25:29;;;;;;;7.80;4.20;;;;;;;;;;5056913;28;20144;-74
2023/07/09 12:27:55;;;;;;;8.98;4.85;;;;;;;;;;5036585;28;20049;-74
2023/07/09 12:30:22;;;;;;;10.07;4.57;;;;;;;;;;5055632;28;20081;-73
2023/07/09 12:32:49;;;;;;;11.30;4.90;;;;;;;;;;5034911;28;20044;-73
2023/07/09 12:35:16;;;;;;;9.65;4.78;;;;;;;;;;5054266;28;20052;-74
2023/07/09 12:37:46;;;;;;;6.63;4.55;;;;;;;;;;5054837;28;20106;-74
2023/07/09 12:40:32;;;;;;;9.38;4.93;;;;;;;;;;5052998;28;20049;-74
2023/07/09 12:42:58;;;;;;;7.75;4.22;;;;;;;;;;5054631;28;20045;-74
2023/07/09 12:45:24;;;;;;;8.80;4.43;;;;;;;;;;5039378;28;20135;-74
2023/07/09 12:47:51;;;;;;;8.50;4.50;;;;;;;;;;5038181;28;20489;-75
2023/07/09 12:50:34;;;;;;;11.55;4.75;;;;;;;;;;5055174;28;20100;-74
2023/07/09 12:53:12;;;;;;;8.05;4.65;;;;;;;;;;5054798;28;20048;-74
2023/07/09 12:55:39;;;;;;;7.57;4.57;;;;;;;;;;5058152;28;20105;-74
2023/07/09 12:58:09;;;;;;;10.43;4.60;;;;;;;;;;5055266;28;20132;-75
2023/07/09 13:00:35;;;;;;;8.18;4.10;;;;;;;;;;5058312;28;20045;-76
2023/07/09 13:03:03;;;;;;;7.75;4.53;;;;;;;;;;5060187;28;20043;-75
2023/07/09 13:05:29;;;;;;;11.85;4.43;;;;;;;;;;5056651;28;20049;-74
2023/07/09 13:08:01;;;;;;;9.73;4.28;;;;;;;;;;5038242;28;20048;-74
2023/07/09 13:10:29;;;;;;;11.82;4.65;;;;;;;;;;5053838;28;20049;-75
2023/07/09 13:12:57;;;;;;;8.65;4.40;;;;;;;;;;5049753;28;20037;-74
2023/07/09 13:15:29;;;;;;;8.68;4.40;;;;;;;;;;5049768;28;20044;-75
2023/07/09 13:18:14;;;;;;;7.70;3.95;;;;;;;;;;5032447;28;20068;-73
2023/07/09 13:20:42;;;;;;;8.63;4.10;;;;;;;;;;5040447;28;20052;-75
2023/07/09 13:23:12;;;;;;;7.13;3.95;;;;;;;;;;5038214;28;20124;-74
2023/07/09 13:25:38;;;;;;;;;;;;;;;;;;5038187;28;20057;-74
2023/07/09 13:28:04;;;;;;;7.90;4.10;;;;;;;;;;5053974;28;20289;-74
2023/07/09 13:30:31;;;;;;;9.10;4.40;;;;;;;;;;5046133;28;20083;-74
2023/07/09 13:32:58;;;;;;;11.15;4.68;;;;;;;;;;5047547;28;20049;-73
2023/07/09 13:35:25;;;;;;;8.95;4.30;;;;;;;;;;5048184;28;20041;-74
2023/07/09 13:37:51;;;;;;;10.50;4.10;;;;;;;;;;5029527;28;20049;-74
2023/07/09 13:40:18;;;;;;;7.28;4.10;;;;;;;;;;5045744;28;20459;-75
2023/07/09 13:42:44;;;;;;;7.75;4.25;;;;;;;;;;5047100;28;20033;-74
2023/07/09 13:45:18;;;;;;;6.32;3.92;;;;;;;;;;5041826;28;20057;-74
2023/07/09 13:47:44;;;;;;;8.00;3.97;;;;;;;;;;5050469;28;20112;-74
2023/07/09 13:50:10;;;;;;;9.93;4.07;;;;;;;;;;5032412;28;20098;-74
2023/07/09 13:52:36;;;;;;;8.18;4.00;;;;;;;;;;5049517;28;20398;-74
2023/07/09 13:55:02;;;;;;;11.23;4.22;;;;;;;;;;5051411;28;20072;-74
2023/07/09 13:57:29;;;;;;;8.65;3.83;;;;;;;;;;5043536;28;20399;-74
2023/07/09 13:59:57;;;;;;;6.82;4.20;;;;;;;;;;5045527;28;20053;-74
2023/07/09 14:02:32;;;;;;;7.38;3.90;;;;;;;;;;5040457;28;20589;-74
2023/07/09 14:04:59;;;;;;;11.15;4.30;;;;;;;;;;5027627;28;20597;-74
2023/07/09 14:07:29;;;;;;;7.40;4.47;;;;;;;;;;5045397;28;20443;-75
2023/07/09 14:09:56;;;;;;;9.10;4.13;;;;;;;;;;5048470;28;20554;-73
2023/07/09 14:12:22;;;;;;;8.80;4.30;;;;;;;;;;5046833;28;20124;-74
2023/07/09 14:14:49;;;;;;;8.38;4.00;;;;;;;;;;5051519;28;20042;-73
2023/07/09 14:17:16;;;;;;;10.60;4.22;;;;;;;;;;5043971;28;20049;-76
2023/07/09 14:19:42;;;;;;;9.07;4.40;;;;;;;;;;5040458;28;20063;-74
2023/07/09 14:22:24;;;;;;;10.80;4.55;;;;;;;;;;5046861;28;20041;-74
2023/07/09 14:24:50;;;;;;;7.05;4.00;;;;;;;;;;5035816;28;20065;-74
2023/07/09 14:27:17;;;;;;;9.10;4.55;;;;;;;;;;5051783;28;20045;-74
2023/07/09 14:29:43;;;;;;;11.50;4.03;;;;;;;;;;5051496;28;20053;-74
2023/07/09 14:32:30;;;;;;;10.50;4.30;;;;;;;;;;5046822;28;20399;-74
2023/07/09 14:34:56;;;;;;;10.55;4.18;;;;;;;;;;5031471;28;20052;-74
2023/07/09 14:37:22;;;;;;;7.60;3.85;;;;;;;;;;5059644;28;22807;-74
2023/07/09 14:39:48;;;;;;;7.82;4.18;;;;;;;;;;5060529;28;20091;-74